Time;durP1;ratioP1;P1;durP2;ratioP2;P2;SDS_P1;SDS_P2;PMS_P1;PMS_P2;Temp;Humidity;BMP_temperature;BMP_pressure;BME280_temperature;BME280_humidity;BME280_pressure;Samples;Min_cycle;Max_cycle;Signal;HPM_P1;HPM_P2
2023/05/02 00:02:13;;;;;;;;;;;;;;;;;;5034669;28;19917;-23
2023/05/02 00:04:39;;;;;;;;;;;;;;;;;;5034520;28;20008;-23
2023/05/02 00:07:05;;;;;;;;;;;;;;;;;;5034963;28;19916;-24
2023/05/02 00:09:31;;;;;;;;;;;;;;;;;;5034659;28;20363;-24
2023/05/02 00:11:57;;;;;;;;;;;;;;;;;;5034618;28;19910;-24
2023/05/02 00:14:23;;;;;;;;;;;;;;;;;;5034529;28;19913;-24
2023/05/02 00:16:49;;;;;;;;;;;;;;;;;;5034618;28;19909;-24
2023/05/02 00:19:15;;;;;;;;;;;;;;;;;;5034640;28;20287;-23
2023/05/02 00:21:41;;;;;;;;;;;;;;;;;;5034610;28;19909;-24
2023/05/02 00:24:07;;;;;;;;;;;;;;;;;;5034681;28;19971;-23
2023/05/02 00:26:32;;;;;;;;;;;;;;;;;;5034493;28;20320;-24
2023/05/02 00:29:00;;;;;;;;;;;;;;;;;;5034497;28;19932;-23
2023/05/02 00:31:26;;;;;;;;;;;;;;;;;;5034749;28;19921;-23
2023/05/02 00:33:51;;;;;;;;;;;;;;;;;;5034467;28;20351;-23
2023/05/02 00:36:17;;;;;;;;;;;;;;;;;;5034418;28;20351;-23
2023/05/02 00:38:43;;;;;;;;;;;;;;;;;;5034474;28;19909;-23
2023/05/02 00:41:10;;;;;;;;;;;;;;;;;;5034451;28;20332;-24
2023/05/02 00:43:38;;;;;;;;;;;;;;;;;;5034393;28;19975;-23
2023/05/02 00:46:04;;;;;;;;;;;;;;;;;;5033434;28;19999;-23
2023/05/02 00:48:30;;;;;;;;;;;;;;;;;;5033350;28;19983;-23
2023/05/02 00:50:56;;;;;;;;;;;;;;;;;;5034570;28;20000;-23
2023/05/02 00:53:22;;;;;;;;;;;;;;;;;;5034552;28;20319;-23
2023/05/02 00:55:48;;;;;;;;;;;;;;;;;;5034525;28;19944;-23
2023/05/02 00:58:15;;;;;;;;;;;;;;;;;;5034498;28;19919;-24
2023/05/02 01:00:41;;;;;;;;;;;;;;;;;;5034573;28;19920;-23
2023/05/02 01:03:07;;;;;;;;;;;;;;;;;;5033942;28;19921;-23
2023/05/02 01:05:33;;;;;;;;;;;;;;;;;;5034226;28;20366;-23
2023/05/02 01:07:59;;;;;;;;;;;;;;;;;;5034251;28;20303;-23
2023/05/02 01:10:25;;;;;;;;;;;;;;;;;;5034178;28;19920;-23
2023/05/02 01:12:51;;;;;;;;;;;;;;;;;;5034384;28;19909;-23
2023/05/02 01:15:17;;;;;;;;;;;;;;;;;;5034111;28;19909;-23
2023/05/02 01:17:43;;;;;;;;;;;;;;;;;;5034114;28;19967;-24
2023/05/02 01:20:09;;;;;;;;;;;;;;;;;;5034004;28;19909;-24
2023/05/02 01:22:35;;;;;;;;;;;;;;;;;;5033908;28;19953;-23
2023/05/02 01:25:01;;;;;;;;;;;;;;;;;;5034049;28;19913;-23
2023/05/02 01:27:27;;;;;;;;;;;;;;;;;;5035754;28;19932;-23
2023/05/02 01:29:53;;;;;;;;;;;;;;;;;;5037581;28;20255;-23
2023/05/02 01:32:20;;;;;;;;;;;;;;;;;;5037515;28;20414;-23
2023/05/02 01:34:46;;;;;;;;;;;;;;;;;;5036528;28;19916;-23
2023/05/02 01:37:12;;;;;;;;;;;;;;;;;;5037479;28;19967;-23
2023/05/02 01:39:38;;;;;;;;;;;;;;;;;;5037417;28;20349;-24
2023/05/02 01:42:04;;;;;;;;;;;;;;;;;;5037266;28;20267;-24
2023/05/02 01:44:30;;;;;;;;;;;;;;;;;;5037217;28;19912;-23
2023/05/02 01:46:56;;;;;;;;;;;;;;;;;;5037279;28;20314;-24
2023/05/02 01:49:22;;;;;;;;;;;;;;;;;;5037198;28;19916;-24
2023/05/02 01:51:48;;;;;;;;;;;;;;;;;;5037377;28;20343;-24
2023/05/02 01:54:14;;;;;;;;;;;;;;;;;;5037184;28;19909;-23
2023/05/02 01:56:40;;;;;;;;;;;;;;;;;;5037105;28;20299;-23
2023/05/02 01:59:06;;;;;;;;;;;;;;;;;;5037286;28;19909;-23
2023/05/02 02:01:32;;;;;;;;;;;;;;;;;;5036946;28;19913;-23
2023/05/02 02:03:58;;;;;;;;;;;;;;;;;;5036573;28;19974;-23
2023/05/02 02:06:24;;;;;;;;;;;;;;;;;;5035805;28;20074;-23
2023/05/02 02:08:50;;;;;;;;;;;;;;;;;;5036836;28;20197;-23
2023/05/02 02:11:16;;;;;;;;;;;;;;;;;;5037007;28;19955;-24
2023/05/02 02:13:43;;;;;;;;;;;;;;;;;;5036974;28;19996;-24
2023/05/02 02:16:09;;;;;;;;;;;;;;;;;;5036703;28;20217;-24
2023/05/02 02:18:35;;;;;;;;;;;;;;;;;;5036889;28;19909;-24
2023/05/02 02:21:01;;;;;;;;;;;;;;;;;;5036595;28;19909;-23
2023/05/02 02:23:27;;;;;;;;;;;;;;;;;;5036629;28;20055;-24
2023/05/02 02:25:53;;;;;;;;;;;;;;;;;;5035609;28;19909;-23
2023/05/02 02:28:19;;;;;;;;;;;;;;;;;;5036611;28;19967;-23
2023/05/02 02:30:45;;;;;;;;;;;;;;;;;;5036426;28;19981;-23
2023/05/02 02:33:11;;;;;;;;;;;;;;;;;;5036315;28;19948;-24
2023/05/02 02:35:37;;;;;;;;;;;;;;;;;;5036275;28;19967;-23
2023/05/02 02:38:03;;;;;;;;;;;;;;;;;;5035685;28;19975;-23
2023/05/02 02:40:29;;;;;;;;;;;;;;;;;;5035966;28;19909;-23
2023/05/02 02:42:55;;;;;;;;;;;;;;;;;;5036094;28;19916;-23
2023/05/02 02:45:21;;;;;;;;;;;;;;;;;;5036082;28;19952;-24
2023/05/02 02:47:47;;;;;;;;;;;;;;;;;;5036396;28;19940;-23
2023/05/02 02:50:13;;;;;;;;;;;;;;;;;;5036049;28;20344;-23
2023/05/02 02:52:39;;;;;;;;;;;;;;;;;;5035933;28;19917;-23
2023/05/02 02:55:05;;;;;;;;;;;;;;;;;;5035930;28;19963;-23
2023/05/02 02:57:31;;;;;;;;;;;;;;;;;;5035852;28;19924;-23
2023/05/02 02:59:57;;;;;;;;;;;;;;;;;;5035840;28;19988;-23
2023/05/02 03:02:23;;;;;;;;;;;;;;;;;;5035749;28;19909;-23
2023/05/02 03:04:49;;;;;;;;;;;;;;;;;;5036005;28;19920;-23
2023/05/02 03:07:15;;;;;;;;;;;;;;;;;;5035765;28;20321;-23
2023/05/02 03:09:41;;;;;;;;;;;;;;;;;;5035934;28;19916;-23
2023/05/02 03:12:07;;;;;;;;;;;;;;;;;;5035528;28;19909;-24
2023/05/02 03:14:33;;;;;;;;;;;;;;;;;;5034915;28;20000;-23
2023/05/02 03:16:59;;;;;;;;;;;;;;;;;;5035478;28;20347;-24
2023/05/02 03:19:25;;;;;;;;;;;;;;;;;;5035518;28;19910;-24
2023/05/02 03:21:51;;;;;;;;;;;;;;;;;;5035655;28;19974;-23
2023/05/02 03:24:17;;;;;;;;;;;;;;;;;;5035344;28;20303;-23
2023/05/02 03:26:43;;;;;;;;;;;;;;;;;;5035400;28;19924;-24
2023/05/02 03:29:09;;;;;;;;;;;;;;;;;;5034677;28;19909;-23
2023/05/02 03:31:35;;;;;;;;;;;;;;;;;;5035345;28;19909;-23
2023/05/02 03:34:01;;;;;;;;;;;;;;;;;;5035124;28;19917;-24
2023/05/02 03:36:27;;;;;;;;;;;;;;;;;;5035338;28;20247;-23
2023/05/02 03:38:53;;;;;;;;;;;;;;;;;;5035137;28;19914;-23
2023/05/02 03:41:19;;;;;;;;;;;;;;;;;;5034934;28;19916;-23
2023/05/02 03:43:45;;;;;;;;;;;;;;;;;;5034810;28;20015;-23
2023/05/02 03:46:11;;;;;;;;;;;;;;;;;;5034796;28;19951;-24
2023/05/02 03:48:37;;;;;;;;;;;;;;;;;;5035019;28;19920;-24
2023/05/02 03:51:03;;;;;;;;;;;;;;;;;;5034441;28;20237;-22
2023/05/02 03:53:30;;;;;;;;;;;;;;;;;;5034709;28;19916;-22
2023/05/02 03:55:56;;;;;;;;;;;;;;;;;;5034629;28;19976;-23
2023/05/02 03:58:24;;;;;;;;;;;;;;;;;;5033616;28;20009;-22
2023/05/02 04:00:51;;;;;;;;;;;;;;;;;;5034990;28;19921;-22
2023/05/02 04:03:17;;;;;;;;;;;;;;;;;;5034320;28;19951;-23
2023/05/02 04:05:44;;;;;;;;;;;;;;;;;;5034380;28;19909;-22
2023/05/02 04:08:10;;;;;;;;;;;;;;;;;;5034468;28;19910;-23
2023/05/02 04:10:38;;;;;;;;;;;;;;;;;;5033613;28;20210;-22
2023/05/02 04:13:04;;;;;;;;;;;;;;;;;;5034405;28;19979;-22
2023/05/02 04:15:30;;;;;;;;;;;;;;;;;;5034390;28;19992;-22
2023/05/02 04:17:56;;;;;;;;;;;;;;;;;;5034380;28;19952;-22
2023/05/02 04:20:22;;;;;;;;;;;;;;;;;;5034662;28;19905;-22
2023/05/02 04:22:49;;;;;;;;;;;;;;;;;;5034331;28;19952;-22
2023/05/02 04:25:15;;;;;;;;;;;;;;;;;;5034275;28;19913;-22
2023/05/02 04:27:41;;;;;;;;;;;;;;;;;;5034272;28;19971;-22
2023/05/02 04:30:07;;;;;;;;;;;;;;;;;;5034533;28;19909;-22
2023/05/02 04:32:33;;;;;;;;;;;;;;;;;;5034170;28;19920;-22
2023/05/02 04:34:58;;;;;;;;;;;;;;;;;;5034327;28;19909;-25
2023/05/02 04:37:24;;;;;;;;;;;;;;;;;;5034489;28;20348;-22
2023/05/02 04:39:50;;;;;;;;;;;;;;;;;;5034272;28;20347;-23
2023/05/02 04:42:16;;;;;;;;;;;;;;;;;;5034247;28;19916;-22
2023/05/02 04:44:42;;;;;;;;;;;;;;;;;;5033090;28;20493;-22
2023/05/02 04:47:08;;;;;;;;;;;;;;;;;;5033251;28;19909;-22
2023/05/02 04:49:35;;;;;;;;;;;;;;;;;;5034535;28;19928;-22
2023/05/02 04:52:00;;;;;;;;;;;;;;;;;;5034080;28;19909;-21
2023/05/02 04:54:26;;;;;;;;;;;;;;;;;;5034111;28;20000;-22
2023/05/02 04:56:52;;;;;;;;;;;;;;;;;;5034346;28;20313;-22
2023/05/02 04:59:19;;;;;;;;;;;;;;;;;;5034409;28;19909;-23
2023/05/02 05:01:45;;;;;;;;;;;;;;;;;;5034842;28;19909;-23
2023/05/02 05:04:11;;;;;;;;;;;;;;;;;;5037570;28;20039;-23
2023/05/02 05:06:37;;;;;;;;;;;;;;;;;;5037855;28;19921;-24
2023/05/02 05:09:03;;;;;;;;;;;;;;;;;;5037589;28;19925;-24
2023/05/02 05:11:29;;;;;;;;;;;;;;;;;;5037870;28;20019;-23
2023/05/02 05:13:55;;;;;;;;;;;;;;;;;;5037509;28;20007;-23
2023/05/02 05:16:21;;;;;;;;;;;;;;;;;;5037834;28;19920;-24
2023/05/02 05:18:48;;;;;;;;;;;;;;;;;;5037671;28;19964;-23
2023/05/02 05:21:14;;;;;;;;;;;;;;;;;;5037847;28;20260;-23
2023/05/02 05:23:44;;;;;;;;;;;;;;;;;;5037493;28;19924;-23
2023/05/02 05:26:10;;;;;;;;;;;;;;;;;;5037471;28;20225;-24
2023/05/02 05:28:36;;;;;;;;;;;;;;;;;;5037363;28;19920;-23
2023/05/02 05:31:02;;;;;;;;;;;;;;;;;;5037248;28;19909;-23
2023/05/02 05:33:28;;;;;;;;;;;;;;;;;;5037182;28;19909;-23
2023/05/02 05:35:54;;;;;;;;;;;;;;;;;;5037180;28;19909;-23
2023/05/02 05:38:20;;;;;;;;;;;;;;;;;;5037459;28;20027;-23
2023/05/02 05:40:46;;;;;;;;;;;;;;;;;;5036166;28;20005;-23
2023/05/02 05:43:12;;;;;;;;;;;;;;;;;;5036883;28;19909;-23
2023/05/02 05:45:38;;;;;;;;;;;;;;;;;;5035800;28;20332;-23
2023/05/02 05:48:04;;;;;;;;;;;;;;;;;;5036824;28;19910;-23
2023/05/02 05:50:30;;;;;;;;;;;;;;;;;;5036840;28;19996;-23
2023/05/02 05:52:56;;;;;;;;;;;;;;;;;;5035911;28;19909;-23
2023/05/02 05:55:22;;;;;;;;;;;;;;;;;;5036756;28;19956;-23
2023/05/02 05:57:48;;;;;;;;;;;;;;;;;;5036513;28;19932;-24
2023/05/02 06:00:13;;;;;;;;;;;;;;;;;;5036471;28;19909;-23
2023/05/02 06:02:39;;;;;;;;;;;;;;;;;;5035877;28;19983;-23
2023/05/02 06:05:05;;;;;;;;;;;;;;;;;;5036422;28;20250;-23
2023/05/02 06:07:31;;;;;;;;;;;;;;;;;;5036457;28;20248;-23
2023/05/02 06:09:57;;;;;;;;;;;;;;;;;;5036451;28;20343;-24
2023/05/02 06:12:23;;;;;;;;;;;;;;;;;;5036043;28;19913;-25
2023/05/02 06:14:49;;;;;;;;;;;;;;;;;;5035791;28;19971;-25
2023/05/02 06:17:15;;;;;;;;;;;;;;;;;;5035746;28;19920;-25
2023/05/02 06:19:41;;;;;;;;;;;;;;;;;;5034706;28;19909;-24
2023/05/02 06:22:07;;;;;;;;;;;;;;;;;;5034539;28;19967;-24
2023/05/02 06:24:33;;;;;;;;;;;;;;;;;;5035555;28;19975;-25
2023/05/02 06:26:59;;;;;;;;;;;;;;;;;;5035487;28;19921;-23
2023/05/02 06:29:25;;;;;;;;;;;;;;;;;;5035535;28;20256;-22
2023/05/02 06:31:51;;;;;;;;;;;;;;;;;;5034338;28;19909;-23
2023/05/02 06:34:17;;;;;;;;;;;;;;;;;;5035728;28;19909;-23
2023/05/02 06:36:43;;;;;;;;;;;;;;;;;;5034481;28;19924;-27
2023/05/02 06:39:10;;;;;;;;;;;;;;;;;;5035544;28;19909;-24
2023/05/02 06:41:36;;;;;;;;;;;;;;;;;;5035689;28;19960;-25
2023/05/02 06:44:02;;;;;;;;;;;;;;;;;;5035461;28;20466;-22
2023/05/02 06:46:28;;;;;;;;;;;;;;;;;;5035750;28;19967;-22
2023/05/02 06:48:54;;;;;;;;;;;;;;;;;;5035562;28;20004;-24
2023/05/02 06:51:21;;;;;;;;;;;;;;;;;;5035717;28;19941;-24
2023/05/02 06:53:47;;;;;;;;;;;;;;;;;;5035502;28;19909;-24
2023/05/02 06:56:13;;;;;;;;;;;;;;;;;;5035564;28;20252;-24
2023/05/02 06:58:39;;;;;;;;;;;;;;;;;;5035526;28;20247;-24
2023/05/02 07:01:05;;;;;;;;;;;;;;;;;;5035530;28;19909;-24
2023/05/02 07:03:31;;;;;;;;;;;;;;;;;;5035151;28;19921;-24
2023/05/02 07:05:57;;;;;;;;;;;;;;;;;;5035191;28;19910;-24
2023/05/02 07:08:23;;;;;;;;;;;;;;;;;;5034279;28;19924;-24
2023/05/02 07:10:49;;;;;;;;;;;;;;;;;;5034168;28;19974;-24
2023/05/02 07:13:15;;;;;;;;;;;;;;;;;;5035174;28;19913;-24
2023/05/02 07:15:41;;;;;;;;;;;;;;;;;;5035209;28;20260;-24
2023/05/02 07:18:07;;;;;;;;;;;;;;;;;;5034117;28;19920;-24
2023/05/02 07:20:33;;;;;;;;;;;;;;;;;;5034981;28;19967;-26
2023/05/02 07:22:59;;;;;;;;;;;;;;;;;;5033948;28;19909;-24
2023/05/02 07:25:26;;;;;;;;;;;;;;;;;;5033685;28;20037;-24
2023/05/02 07:27:52;;;;;;;;;;;;;;;;;;5034887;28;20355;-24
2023/05/02 07:30:17;;;;;;;;;;;;;;;;;;5035093;28;19955;-24
2023/05/02 07:32:44;;;;;;;;;;;;;;;;;;5034757;28;19909;-24
2023/05/02 07:35:09;;;;;;;;;;;;;;;;;;5035205;28;19916;-24
2023/05/02 07:37:36;;;;;;;;;;;;;;;;;;5034895;28;19909;-24
2023/05/02 07:40:02;;;;;;;;;;;;;;;;;;5035076;28;19909;-24
2023/05/02 07:42:28;;;;;;;;;;;;;;;;;;5034032;28;19919;-24
2023/05/02 07:44:54;;;;;;;;;;;;;;;;;;5034532;28;19976;-24
2023/05/02 07:47:20;;;;;;;;;;;;;;;;;;5034371;28;19909;-24
2023/05/02 07:49:46;;;;;;;;;;;;;;;;;;5034344;28;19921;-27
2023/05/02 07:52:12;;;;;;;;;;;;;;;;;;5034500;28;19913;-24
2023/05/02 07:54:38;;;;;;;;;;;;;;;;;;5034524;28;19921;-24
2023/05/02 07:57:07;;;;;;;;;;;;;;;;;;5034557;28;19959;-24
2023/05/02 07:59:33;;;;;;;;;;;;;;;;;;5034331;28;19913;-24
2023/05/02 08:01:59;;;;;;;;;;;;;;;;;;5034420;28;20232;-24
2023/05/02 08:04:25;;;;;;;;;;;;;;;;;;5034135;28;19932;-24
2023/05/02 08:06:51;;;;;;;;;;;;;;;;;;5034354;28;19909;-24
2023/05/02 08:09:17;;;;;;;;;;;;;;;;;;5034239;28;19962;-24
2023/05/02 08:11:42;;;;;;;;;;;;;;;;;;5034117;28;19913;-24
2023/05/02 08:14:08;;;;;;;;;;;;;;;;;;5034645;28;19917;-24
2023/05/02 08:16:34;;;;;;;;;;;;;;;;;;5034409;28;19909;-24
2023/05/02 08:19:00;;;;;;;;;;;;;;;;;;5034388;28;19936;-24
2023/05/02 08:21:27;;;;;;;;;;;;;;;;;;5034068;28;19936;-31
2023/05/02 08:23:53;;;;;;;;;;;;;;;;;;5034142;28;19991;-24
2023/05/02 08:26:20;;;;;;;;;;;;;;;;;;5033769;28;19913;-24
2023/05/02 08:28:46;;;;;;;;;;;;;;;;;;5034103;28;19909;-24
2023/05/02 08:31:12;;;;;;;;;;;;;;;;;;5034060;28;19917;-24
2023/05/02 08:33:38;;;;;;;;;;;;;;;;;;5033592;28;19929;-24
2023/05/02 08:36:04;;;;;;;;;;;;;;;;;;5035440;28;19910;-24
2023/05/02 08:38:30;;;;;;;;;;;;;;;;;;5037818;28;20024;-24
2023/05/02 08:40:56;;;;;;;;;;;;;;;;;;5037757;28;19909;-24
2023/05/02 08:43:22;;;;;;;;;;;;;;;;;;5037441;28;20292;-24
2023/05/02 08:45:48;;;;;;;;;;;;;;;;;;5037378;28;20003;-24
2023/05/02 08:48:15;;;;;;;;;;;;;;;;;;5037369;28;20229;-24
2023/05/02 08:50:42;;;;;;;;;;;;;;;;;;5037270;28;20221;-24
2023/05/02 08:53:08;;;;;;;;;;;;;;;;;;5037377;28;19920;-24
2023/05/02 08:55:34;;;;;;;;;;;;;;;;;;5037327;28;19909;-24
2023/05/02 08:58:00;;;;;;;;;;;;;;;;;;5037262;28;19917;-24
2023/05/02 09:00:26;;;;;;;;;;;;;;;;;;5037372;28;20322;-24
2023/05/02 09:02:52;;;;;;;;;;;;;;;;;;5036968;28;19921;-24
2023/05/02 09:05:18;;;;;;;;;;;;;;;;;;5037102;28;20020;-24
2023/05/02 09:07:45;;;;;;;;;;;;;;;;;;5037018;28;20355;-24
2023/05/02 09:10:11;;;;;;;;;;;;;;;;;;5037075;28;19921;-24
2023/05/02 09:12:37;;;;;;;;;;;;;;;;;;5036827;28;19978;-24
2023/05/02 09:15:03;;;;;;;;;;;;;;;;;;5036978;28;19924;-24
2023/05/02 09:17:29;;;;;;;;;;;;;;;;;;5036956;28;19913;-24
2023/05/02 09:19:55;;;;;;;;;;;;;;;;;;5036870;28;20006;-24
2023/05/02 09:22:21;;;;;;;;;;;;;;;;;;5036710;28;19927;-24
2023/05/02 09:24:47;;;;;;;;;;;;;;;;;;5036965;28;19913;-24
2023/05/02 09:27:13;;;;;;;;;;;;;;;;;;5037391;28;20243;-24
2023/05/02 09:29:41;;;;;;;;;;;;;;;;;;5037031;28;20352;-23
2023/05/02 09:32:07;;;;;;;;;;;;;;;;;;5036819;28;19913;-24
2023/05/02 09:34:33;;;;;;;;;;;;;;;;;;5036770;28;19981;-24
2023/05/02 09:37:00;;;;;;;;;;;;;;;;;;5037084;28;19920;-24
2023/05/02 09:39:27;;;;;;;;;;;;;;;;;;5037214;28;20241;-23
2023/05/02 09:41:53;;;;;;;;;;;;;;;;;;5036962;28;19913;-24
2023/05/02 09:44:19;;;;;;;;;;;;;;;;;;5036878;28;19924;-24
2023/05/02 09:46:45;;;;;;;;;;;;;;;;;;5037234;28;19909;-24
2023/05/02 09:49:13;;;;;;;;;;;;;;;;;;5036103;28;19909;-24
2023/05/02 09:51:39;;;;;;;;;;;;;;;;;;5036601;28;19909;-24
2023/05/02 09:54:05;;;;;;;;;;;;;;;;;;5036488;28;19935;-24
2023/05/02 09:56:31;;;;;;;;;;;;;;;;;;5036731;28;19913;-24
2023/05/02 09:58:57;;;;;;;;;;;;;;;;;;5035884;28;20012;-24
2023/05/02 10:01:23;;;;;;;;;;;;;;;;;;5036459;28;19955;-24
2023/05/02 10:03:49;;;;;;;;;;;;;;;;;;5036131;28;20028;-24
2023/05/02 10:06:18;;;;;;;;;;;;;;;;;;5036416;28;19988;-24
2023/05/02 10:08:46;;;;;;;;;;;;;;;;;;5036434;28;19909;-24
2023/05/02 10:11:11;;;;;;;;;;;;;;;;;;5036395;28;20248;-24
2023/05/02 10:13:38;;;;;;;;;;;;;;;;;;5036187;28;19909;-24
2023/05/02 10:16:04;;;;;;;;;;;;;;;;;;5036214;28;19909;-24
2023/05/02 10:18:30;;;;;;;;;;;;;;;;;;5036145;28;20352;-24
2023/05/02 10:20:56;;;;;;;;;;;;;;;;;;5035010;28;20018;-24
2023/05/02 10:23:22;;;;;;;;;;;;;;;;;;5034879;28;20004;-24
2023/05/02 10:25:48;;;;;;;;;;;;;;;;;;5036106;28;20058;-24
2023/05/02 10:28:14;;;;;;;;;;;;;;;;;;5036399;28;19920;-24
2023/05/02 10:30:40;;;;;;;;;;;;;;;;;;5036012;28;19953;-24
2023/05/02 10:33:06;;;;;;;;;;;;;;;;;;5035759;28;19913;-24
2023/05/02 10:35:32;;;;;;;;;;;;;;;;;;5035902;28;19968;-24
2023/05/02 10:37:58;;;;;;;;;;;;;;;;;;5035994;28;19919;-24
2023/05/02 10:40:25;;;;;;;;;;;;;;;;;;5035770;28;19909;-24
2023/05/02 10:42:51;;;;;;;;;;;;;;;;;;5036127;28;20232;-24
2023/05/02 10:45:17;;;;;;;;;;;;;;;;;;5035982;28;19925;-24
2023/05/02 10:47:43;;;;;;;;;;;;;;;;;;5035766;28;19913;-24
2023/05/02 10:50:09;;;;;;;;;;;;;;;;;;5035545;28;19910;-24
2023/05/02 10:52:36;;;;;;;;;;;;;;;;;;5035348;28;20328;-24
2023/05/02 10:55:02;;;;;;;;;;;;;;;;;;5035602;28;20051;-24
2023/05/02 10:57:28;;;;;;;;;;;;;;;;;;5035329;28;20070;-24
2023/05/02 10:59:54;;;;;;;;;;;;;;;;;;5034055;28;19909;-24
2023/05/02 11:02:22;;;;;;;;;;;;;;;;;;5034772;28;20007;-24
2023/05/02 11:04:48;;;;;;;;;;;;;;;;;;5034789;28;19928;-24
2023/05/02 11:07:14;;;;;;;;;;;;;;;;;;5035026;28;19909;-24
2023/05/02 11:09:40;;;;;;;;;;;;;;;;;;5033668;28;20355;-24
2023/05/02 11:12:07;;;;;;;;;;;;;;;;;;5034902;28;19909;-24
2023/05/02 11:14:33;;;;;;;;;;;;;;;;;;5034713;28;19913;-24
2023/05/02 11:16:59;;;;;;;;;;;;;;;;;;5034772;28;20222;-24
2023/05/02 11:19:25;;;;;;;;;;;;;;;;;;5034835;28;19909;-24
2023/05/02 11:21:58;;;;;;;;;;;;;;;;;;5092290;27;19912;-24
2023/05/02 11:24:24;;;;;;;;;;;;;;;;;;5091817;28;20012;-27
2023/05/02 11:26:50;;;;;;;;;;;;;;;;;;5091791;28;20300;-22
2023/05/02 11:29:16;;;;;;;;;;;;;;;;;;5091874;28;20003;-22
2023/05/02 11:31:42;;;;;;;;;;;;;;;;;;5091468;28;20336;-25
2023/05/02 11:34:08;;;;;;;;;;;;;;;;;;5090338;28;20318;-25
2023/05/02 11:36:34;;;;;;;;;;;;;;;;;;5091504;28;20263;-23
2023/05/02 11:39:00;;;;;;;;;;;;;;;;;;5091555;28;19912;-25
2023/05/02 11:41:26;;;;;;;;;;;;;;;;;;5091419;28;19912;-23
2023/05/02 11:43:52;;;;;;;;;;;;;;;;;;5091285;28;19923;-24
2023/05/02 11:46:19;;;;;;;;;;;;;;;;;;5091385;28;19908;-25
2023/05/02 11:48:45;;;;;;;;;;;;;;;;;;5091245;28;19909;-31
2023/05/02 11:51:11;;;;;;;;;;;;;;;;;;5091333;28;19961;-24
2023/05/02 11:53:37;;;;;;;;;;;;;;;;;;5091259;28;19916;-24
2023/05/02 11:56:03;;;;;;;;;;;;;;;;;;5091244;28;19908;-23
2023/05/02 11:58:31;;;;;;;;;;;;;;;;;;5091214;28;20004;-30
2023/05/02 12:00:57;;;;;;;;;;;;;;;;;;5091256;28;20274;-27
2023/05/02 12:03:23;;;;;;;;;;;;;;;;;;5089974;28;19908;-29
2023/05/02 12:05:49;;;;;;;;;;;;;;;;;;5091032;28;19908;-30
2023/05/02 12:08:15;;;;;;;;;;;;;;;;;;5090952;28;19909;-27
2023/05/02 12:10:41;;;;;;;;;;;;;;;;;;5090842;28;20304;-28
2023/05/02 12:13:07;;;;;;;;;;;;;;;;;;5091275;28;19977;-27
2023/05/02 12:15:33;;;;;;;;;;;;;;;;;;5091033;28;19915;-25
2023/05/02 12:17:59;;;;;;;;;;;;;;;;;;5090717;28;19908;-27
2023/05/02 12:20:25;;;;;;;;;;;;;;;;;;5098297;28;20030;-28
2023/05/02 12:22:51;;;;;;;;;;;;;;;;;;5110974;28;19908;-29
2023/05/02 12:25:17;;;;;;;;;;;;;;;;;;5111000;28;19961;-25
2023/05/02 12:27:43;;;;;;;;;;;;;;;;;;5110896;28;20258;-28
2023/05/02 12:30:09;;;;;;;;;;;;;;;;;;5110922;28;19908;-25
2023/05/02 12:32:35;;;;;;;;;;;;;;;;;;5101385;28;19908;-26
2023/05/02 12:35:01;;;;;;;;;;;;;;;;;;5097431;28;20291;-29
2023/05/02 12:37:27;;;;;;;;;;;;;;;;;;5097192;28;19908;-31
2023/05/02 12:39:54;;;;;;;;;;;;;;;;;;5096986;28;19923;-31
2023/05/02 12:42:20;;;;;;;;;;;;;;;;;;5097012;28;19911;-26
2023/05/02 12:44:46;;;;;;;;;;;;;;;;;;5097336;28;19927;-24
2023/05/02 12:47:12;;;;;;;;;;;;;;;;;;5097132;28;19919;-24
2023/05/02 12:49:38;;;;;;;;;;;;;;;;;;5097088;28;19908;-28
2023/05/02 12:52:04;;;;;;;;;;;;;;;;;;5096841;28;20380;-25
2023/05/02 12:54:30;;;;;;;;;;;;;;;;;;5096904;28;19969;-28
2023/05/02 12:56:56;;;;;;;;;;;;;;;;;;5097042;28;19908;-25
2023/05/02 12:59:22;;;;;;;;;;;;;;;;;;5096587;28;20007;-27
2023/05/02 13:01:48;;;;;;;;;;;;;;;;;;5096550;28;19995;-26
2023/05/02 13:04:14;;;;;;;;;;;;;;;;;;5096965;28;19917;-28
2023/05/02 13:06:41;;;;;;;;;;;;;;;;;;5096596;28;19920;-26
2023/05/02 13:09:07;;;;;;;;;;;;;;;;;;5096521;28;19908;-26
2023/05/02 13:11:33;;;;;;;;;;;;;;;;;;5096518;28;19915;-30
2023/05/02 13:14:00;;;;;;;;;;;;;;;;;;5096037;28;19919;-34
2023/05/02 13:16:26;;;;;;;;;;;;;;;;;;5096118;28;20343;-24
2023/05/02 13:18:52;;;;;;;;;;;;;;;;;;5096191;28;19908;-27
2023/05/02 13:21:18;;;;;;;;;;;;;;;;;;5095724;28;20007;-30
2023/05/02 13:23:44;;;;;;;;;;;;;;;;;;5096141;28;19909;-26
2023/05/02 13:26:10;;;;;;;;;;;;;;;;;;5096546;28;20343;-28
2023/05/02 13:28:36;;;;;;;;;;;;;;;;;;5096132;28;20341;-27
2023/05/02 13:31:02;;;;;;;;;;;;;;;;;;5096337;28;19914;-29
2023/05/02 13:33:28;;;;;;;;;;;;;;;;;;5095886;28;20010;-25
2023/05/02 13:35:54;;;;;;;;;;;;;;;;;;5096075;28;19908;-25
2023/05/02 13:38:20;;;;;;;;;;;;;;;;;;5096480;28;19912;-26
2023/05/02 13:40:46;;;;;;;;;;;;;;;;;;5094944;28;19974;-28
2023/05/02 13:43:13;;;;;;;;;;;;;;;;;;5095149;28;19961;-24
2023/05/02 13:45:39;;;;;;;;;;;;;;;;;;5094319;28;19912;-26
2023/05/02 13:48:05;;;;;;;;;;;;;;;;;;5095740;28;20250;-24
2023/05/02 13:50:36;;;;;;;;;;;;;;;;;;5095747;28;19915;-27
2023/05/02 13:53:02;;;;;;;;;;;;;;;;;;5096129;28;19981;-25
2023/05/02 13:55:28;;;;;;;;;;;;;;;;;;5095805;28;19908;-30
2023/05/02 13:57:54;;;;;;;;;;;;;;;;;;5095528;28;19935;-31
2023/05/02 14:00:20;;;;;;;;;;;;;;;;;;5095318;28;20018;-26
2023/05/02 14:02:47;;;;;;;;;;;;;;;;;;5095439;28;20339;-24
2023/05/02 14:05:13;;;;;;;;;;;;;;;;;;5095209;28;20004;-27
2023/05/02 14:07:39;;;;;;;;;;;;;;;;;;5095467;28;19943;-32
2023/05/02 14:10:05;;;;;;;;;;;;;;;;;;5095538;28;19916;-27
2023/05/02 14:12:31;;;;;;;;;;;;;;;;;;5095364;28;20254;-26
2023/05/02 14:14:57;;;;;;;;;;;;;;;;;;5095676;28;19919;-28
2023/05/02 14:17:26;;;;;;;;;;;;;;;;;;5095388;28;19943;-25
2023/05/02 14:19:52;;;;;;;;;;;;;;;;;;5095049;28;19915;-23
2023/05/02 14:22:18;;;;;;;;;;;;;;;;;;5095211;28;19909;-25
2023/05/02 14:24:44;;;;;;;;;;;;;;;;;;5094880;28;19908;-24
2023/05/02 14:27:11;;;;;;;;;;;;;;;;;;5094923;28;19991;-24
2023/05/02 14:29:37;;;;;;;;;;;;;;;;;;5094953;28;19915;-26
2023/05/02 14:32:03;;;;;;;;;;;;;;;;;;5094833;28;20270;-25
2023/05/02 14:34:29;;;;;;;;;;;;;;;;;;5094909;28;19908;-27
2023/05/02 14:36:55;;;;;;;;;;;;;;;;;;5094979;28;19908;-25
2023/05/02 14:39:21;;;;;;;;;;;;;;;;;;5094894;28;19908;-26
2023/05/02 14:41:47;;;;;;;;;;;;;;;;;;5094744;28;19924;-25
2023/05/02 14:44:13;;;;;;;;;;;;;;;;;;5094802;28;19908;-29
2023/05/02 14:46:39;;;;;;;;;;;;;;;;;;5093826;28;19998;-23
2023/05/02 14:49:05;;;;;;;;;;;;;;;;;;5094698;28;19936;-26
2023/05/02 14:51:31;;;;;;;;;;;;;;;;;;5093766;28;20254;-23
2023/05/02 14:53:57;;;;;;;;;;;;;;;;;;5094605;28;19920;-23
2023/05/02 14:56:24;;;;;;;;;;;;;;;;;;5094320;28;19904;-27
2023/05/02 14:58:50;;;;;;;;;;;;;;;;;;5094657;28;19912;-25
2023/05/02 15:01:16;;;;;;;;;;;;;;;;;;5094712;28;19912;-27
2023/05/02 15:03:44;;;;;;;;;;;;;;;;;;5094381;28;20259;-27
2023/05/02 15:06:10;;;;;;;;;;;;;;;;;;5094705;28;19912;-26
2023/05/02 15:08:36;;;;;;;;;;;;;;;;;;5094824;28;19934;-31
2023/05/02 15:11:02;;;;;;;;;;;;;;;;;;5094671;28;19951;-24
2023/05/02 15:13:28;;;;;;;;;;;;;;;;;;5094140;28;20259;-24
2023/05/02 15:15:54;;;;;;;;;;;;;;;;;;5093865;28;19935;-24
2023/05/02 15:18:20;;;;;;;;;;;;;;;;;;5093789;28;19912;-27
2023/05/02 15:20:47;;;;;;;;;;;;;;;;;;5092806;28;19921;-26
2023/05/02 15:23:13;;;;;;;;;;;;;;;;;;5093691;28;20269;-25
2023/05/02 15:25:39;;;;;;;;;;;;;;;;;;5092698;28;19908;-27
2023/05/02 15:28:06;;;;;;;;;;;;;;;;;;5093713;28;19996;-25
2023/05/02 15:30:32;;;;;;;;;;;;;;;;;;5093685;28;19919;-28
2023/05/02 15:32:58;;;;;;;;;;;;;;;;;;5093567;28;19908;-29
2023/05/02 15:35:24;;;;;;;;;;;;;;;;;;5093679;28;19992;-27
2023/05/02 15:37:50;;;;;;;;;;;;;;;;;;5093832;28;19911;-26
2023/05/02 15:40:16;;;;;;;;;;;;;;;;;;5094090;28;19912;-28
2023/05/02 15:42:42;;;;;;;;;;;;;;;;;;5094130;28;19920;-25
2023/05/02 15:45:08;;;;;;;;;;;;;;;;;;5094201;28;20000;-24
2023/05/02 15:47:34;;;;;;;;;;;;;;;;;;5094346;28;19919;-28
2023/05/02 15:50:00;;;;;;;;;;;;;;;;;;5094191;28;19912;-28
2023/05/02 15:52:26;;;;;;;;;;;;;;;;;;5094240;28;19965;-26
2023/05/02 15:54:54;;;;;;;;;;;;;;;;;;5093986;28;20002;-24
2023/05/02 15:57:20;;;;;;;;;;;;;;;;;;5094085;28;19912;-28
2023/05/02 15:59:46;;;;;;;;;;;;;;;;;;5092958;28;20008;-25
2023/05/02 16:02:12;;;;;;;;;;;;;;;;;;5094223;28;20330;-23
2023/05/02 16:04:38;;;;;;;;;;;;;;;;;;5094269;28;19966;-27
2023/05/02 16:07:04;;;;;;;;;;;;;;;;;;5094994;28;19908;-21
2023/05/02 16:09:30;;;;;;;;;;;;;;;;;;5097717;28;19966;-24
2023/05/02 16:11:56;;;;;;;;;;;;;;;;;;5097823;28;19908;-28
2023/05/02 16:14:24;;;;;;;;;;;;;;;;;;5097671;28;20250;-24
2023/05/02 16:16:50;;;;;;;;;;;;;;;;;;5097624;28;19912;-24
2023/05/02 16:19:16;;;;;;;;;;;;;;;;;;5097226;28;19908;-27
2023/05/02 16:21:42;;;;;;;;;;;;;;;;;;5097094;28;19920;-23
2023/05/02 16:24:08;;;;;;;;;;;;;;;;;;5095977;28;19909;-28
2023/05/02 16:26:34;;;;;;;;;;;;;;;;;;5096191;28;19919;-26
2023/05/02 16:29:00;;;;;;;;;;;;;;;;;;5097082;28;20018;-25
2023/05/02 16:31:26;;;;;;;;;;;;;;;;;;5097075;28;19958;-25
2023/05/02 16:33:52;;;;;;;;;;;;;;;;;;5096807;28;19968;-25
2023/05/02 16:36:19;;;;;;;;;;;;;;;;;;5097109;28;19994;-22
2023/05/02 16:38:45;;;;;;;;;;;;;;;;;;5097152;28;20019;-24